Time;durP1;ratioP1;P1;durP2;ratioP2;P2;SDS_P1;SDS_P2;PMS_P1;PMS_P2;Temp;Humidity;BMP_temperature;BMP_pressure;BME280_temperature;BME280_humidity;BME280_pressure;Samples;Min_cycle;Max_cycle;Signal;HPM_P1;HPM_P2
2022/09/26 00:00:45;;;;;;;6.03;2.20;;;13.50;99.90;;;;;;5031594;28;20032;-76
2022/09/26 00:03:11;;;;;;;6.85;1.80;;;13.50;99.90;;;;;;5030424;28;20109;-75
2022/09/26 00:05:38;;;;;;;6.00;2.05;;;13.50;99.90;;;;;;5031629;28;20073;-75
2022/09/26 00:08:05;;;;;;;6.53;1.88;;;13.50;99.90;;;;;;5030629;28;20500;-75
2022/09/26 00:10:31;;;;;;;11.63;1.98;;;13.50;99.90;;;;;;5031301;28;20022;-76
2022/09/26 00:12:57;;;;;;;7.50;1.90;;;13.50;99.90;;;;;;5046386;28;20041;-76
2022/09/26 00:15:23;;;;;;;10.30;2.28;;;13.50;99.90;;;;;;5043351;28;20064;-76
2022/09/26 00:17:48;;;;;;;8.02;1.88;;;13.50;99.90;;;;;;5031593;28;20022;-75
2022/09/26 00:20:14;;;;;;;7.28;2.05;;;13.50;99.90;;;;;;5030750;28;20038;-75
2022/09/26 00:22:40;;;;;;;6.70;2.22;;;13.50;99.90;;;;;;5031622;28;20159;-74
2022/09/26 00:25:06;;;;;;;6.50;2.10;;;13.50;99.90;;;;;;5034388;28;20104;-75
2022/09/26 00:27:32;;;;;;;8.38;2.67;;;13.50;99.90;;;;;;5032447;28;20053;-76
2022/09/26 00:29:57;;;;;;;5.05;2.10;;;13.50;99.90;;;;;;5041233;28;20030;-77
2022/09/26 00:32:23;;;;;;;7.63;2.30;;;13.50;99.90;;;;;;5031091;28;20033;-76
2022/09/26 00:34:49;;;;;;;6.55;2.30;;;13.50;99.90;;;;;;5045184;28;20394;-75
2022/09/26 00:37:15;;;;;;;5.50;2.03;;;13.50;99.90;;;;;;5020149;28;20021;-76
2022/09/26 00:39:41;;;;;;;4.93;2.00;;;13.40;99.90;;;;;;5027127;28;20386;-75
2022/09/26 00:42:13;;;;;;;8.18;2.00;;;13.40;99.90;;;;;;5024612;28;20017;-76
2022/09/26 00:44:45;;;;;;;6.13;1.98;;;13.50;99.90;;;;;;5042254;28;20025;-75
2022/09/26 00:47:39;;;;;;;8.35;2.10;;;13.40;99.90;;;;;;5024464;28;20545;-77
2022/09/26 00:50:26;;;;;;;5.30;1.98;;;13.50;99.90;;;;;;5034440;28;20022;-75
2022/09/26 00:53:06;;;;;;;5.50;2.30;;;13.40;99.90;;;;;;5034103;28;20052;-76
2022/09/26 00:55:36;;;;;;;4.75;2.20;;;13.40;99.90;;;;;;5023745;28;20363;-76
2022/09/26 00:58:08;;;;;;;8.15;2.17;;;13.40;99.90;;;;;;5034202;28;20088;-76
2022/09/26 01:00:35;;;;;;;6.13;2.20;;;13.50;99.90;;;;;;5043049;28;20072;-75
2022/09/26 01:03:01;;;;;;;9.45;2.30;;;13.50;99.90;;;;;;5040762;28;20478;-75
2022/09/26 01:05:27;;;;;;;4.97;1.83;;;13.40;99.90;;;;;;5033470;28;20030;-76
2022/09/26 01:07:55;;;;;;;4.60;1.58;;;13.40;99.90;;;;;;5034336;28;20030;-75
2022/09/26 01:10:21;;;;;;;4.70;1.92;;;13.40;99.90;;;;;;5029835;28;20025;-75
2022/09/26 01:12:47;;;;;;;5.18;1.33;;;13.40;99.90;;;;;;5023902;28;20022;-75
2022/09/26 01:15:13;;;;;;;3.85;1.55;;;13.40;99.90;;;;;;5032914;28;20362;-74
2022/09/26 01:17:41;;;;;;;4.60;1.65;;;13.40;99.90;;;;;;5034024;28;20367;-74
2022/09/26 01:20:17;;;;;;;5.85;2.00;;;13.40;99.90;;;;;;5033530;28;20437;-75
2022/09/26 01:23:20;;;;;;;7.65;2.00;;;13.50;99.90;;;;;;5021423;28;20017;-74
2022/09/26 01:26:04;;;;;;;8.18;2.10;;;13.50;99.90;;;;;;5032283;28;20458;-74
2022/09/26 01:28:59;;;;;;;8.52;2.38;;;13.40;99.90;;;;;;5046954;28;20539;-75
2022/09/26 01:34:49;;;;;;;10.20;2.03;;;13.40;99.90;;;;;;5021374;28;20036;-74
2022/09/26 01:37:29;;;;;;;4.45;1.67;;;13.40;99.90;;;;;;5032037;28;20017;-74
2022/09/26 01:39:57;;;;;;;5.55;1.90;;;13.40;99.90;;;;;;5033051;28;20404;-75
2022/09/26 01:42:38;;;;;;;3.15;1.90;;;13.40;99.90;;;;;;5032117;28;20032;-75
2022/09/26 01:45:21;;;;;;;9.35;1.60;;;13.40;99.90;;;;;;5027302;28;20480;-75
2022/09/26 01:48:00;;;;;;;4.85;1.70;;;13.40;99.90;;;;;;5031818;28;20048;-75
2022/09/26 01:50:34;;;;;;;4.05;1.80;;;13.40;99.90;;;;;;5041103;28;20025;-75
2022/09/26 01:53:06;;;;;;;5.72;1.83;;;13.40;99.90;;;;;;5046215;28;20091;-75
2022/09/26 01:55:44;;;;;;;8.57;2.28;;;13.40;99.90;;;;;;5032956;28;20026;-75
2022/09/26 01:58:17;;;;;;;7.03;1.88;;;13.40;99.90;;;;;;5032517;28;20543;-75
2022/09/26 02:00:46;;;;;;;7.68;2.00;;;13.40;99.90;;;;;;5032501;28;20027;-75
2022/09/26 02:03:17;;;;;;;7.80;2.20;;;13.40;99.90;;;;;;5049962;28;20111;-75
2022/09/26 02:05:50;;;;;;;5.97;1.88;;;13.40;99.90;;;;;;5042297;28;20028;-75
2022/09/26 02:08:40;;;;;;;3.88;1.95;;;13.40;99.90;;;;;;5032559;28;20056;-75
2022/09/26 02:11:12;;;;;;;6.68;2.10;;;13.40;99.90;;;;;;5032344;28;20044;-75
2022/09/26 02:13:59;;;;;;;6.53;1.90;;;13.40;99.90;;;;;;5046098;28;20029;-74
2022/09/26 02:16:30;;;;;;;7.25;2.00;;;13.40;99.90;;;;;;5032466;28;20128;-75
2022/09/26 02:19:09;;;;;;;7.22;2.30;;;13.40;99.90;;;;;;5032001;28;20493;-75
2022/09/26 02:21:34;;;;;;;7.30;1.88;;;13.40;99.90;;;;;;5032432;28;20401;-75
2022/09/26 02:24:01;;;;;;;6.10;1.70;;;13.40;99.90;;;;;;5032099;28;20030;-75
2022/09/26 02:26:27;;;;;;;5.53;1.67;;;13.40;99.90;;;;;;5018759;28;20036;-75
2022/09/26 02:28:54;;;;;;;7.10;1.95;;;13.40;99.90;;;;;;5030886;28;20029;-75
2022/09/26 02:31:24;;;;;;;4.68;1.83;;;13.40;99.90;;;;;;5032001;28;20096;-75
2022/09/26 02:33:51;;;;;;;5.35;1.98;;;13.40;99.90;;;;;;5032702;28;20084;-75
2022/09/26 02:36:19;;;;;;;6.00;1.70;;;13.40;99.90;;;;;;5031304;28;20030;-75
2022/09/26 02:38:44;;;;;;;8.77;1.98;;;13.40;99.90;;;;;;5031136;28;20515;-75
2022/09/26 02:41:12;;;;;;;6.75;1.92;;;13.40;99.90;;;;;;5031101;28;20021;-75
2022/09/26 02:43:43;;;;;;;5.65;2.03;;;13.40;99.90;;;;;;5032111;28;20021;-75
2022/09/26 02:46:45;;;;;;;9.23;1.90;;;13.30;99.90;;;;;;5017838;28;20040;-75
2022/09/26 02:49:19;;;;;;;6.13;2.05;;;13.40;99.90;;;;;;5031201;28;20053;-75
2022/09/26 02:51:45;;;;;;;5.70;1.83;;;13.30;99.90;;;;;;5030429;28;20132;-75
2022/09/26 02:54:27;;;;;;;7.45;2.55;;;13.30;99.90;;;;;;5032094;28;20450;-75
2022/09/26 02:57:29;;;;;;;6.43;2.00;;;13.30;99.90;;;;;;5031484;28;20064;-75
2022/09/26 03:00:08;;;;;;;4.30;1.90;;;13.30;99.90;;;;;;5027711;28;20053;-75
2022/09/26 03:03:04;;;;;;;7.40;2.03;;;13.30;99.90;;;;;;5017828;28;20047;-75
2022/09/26 03:05:33;;;;;;;6.55;1.83;;;13.30;99.90;;;;;;5028329;28;20036;-75
2022/09/26 03:08:14;;;;;;;4.90;1.90;;;13.20;99.90;;;;;;5012608;28;20029;-75
2022/09/26 03:10:41;;;;;;;9.20;2.20;;;13.20;99.90;;;;;;5028587;28;20509;-75
2022/09/26 03:13:15;;;;;;;5.03;1.75;;;13.20;99.90;;;;;;5029295;28;20053;-75
2022/09/26 03:15:45;;;;;;;8.30;2.08;;;13.20;99.90;;;;;;5028453;28;20024;-75
2022/09/26 03:18:15;;;;;;;5.53;1.83;;;13.20;99.90;;;;;;5029215;28;20025;-74
2022/09/26 03:20:42;;;;;;;8.43;2.10;;;13.20;99.90;;;;;;5027853;28;20421;-75
2022/09/26 03:23:08;;;;;;;8.57;1.98;;;13.20;99.90;;;;;;5028874;28;20100;-75
2022/09/26 03:25:34;;;;;;;3.40;1.65;;;13.20;99.90;;;;;;5029761;28;20105;-75
2022/09/26 03:28:01;;;;;;;5.40;1.75;;;13.20;99.90;;;;;;5042040;28;20069;-74
2022/09/26 03:30:28;;;;;;;4.88;2.35;;;13.20;99.90;;;;;;5029208;28;20080;-75
2022/09/26 03:32:54;;;;;;;5.97;1.67;;;13.20;99.90;;;;;;5027942;28;20453;-75
2022/09/26 03:35:20;;;;;;;6.05;1.45;;;13.20;99.90;;;;;;5029608;28;20060;-75
2022/09/26 03:37:46;;;;;;;7.13;1.63;;;13.30;99.90;;;;;;5016827;28;20121;-75
2022/09/26 03:40:13;;;;;;;3.92;1.65;;;13.30;99.90;;;;;;5032442;28;20410;-75
2022/09/26 03:42:39;;;;;;;6.72;1.88;;;13.30;99.90;;;;;;5031162;28;20026;-75
2022/09/26 03:45:09;;;;;;;6.28;1.75;;;13.30;99.90;;;;;;5023872;28;20026;-75
2022/09/26 03:47:37;;;;;;;7.07;1.83;;;13.30;99.90;;;;;;5026331;28;20045;-75
2022/09/26 03:50:04;;;;;;;4.95;1.75;;;13.20;99.90;;;;;;5032296;28;20018;-75
2022/09/26 03:52:30;;;;;;;4.68;1.60;;;13.20;99.90;;;;;;5031711;28;20128;-76
2022/09/26 03:54:56;;;;;;;4.55;1.50;;;13.20;99.90;;;;;;5030213;28;20096;-75
2022/09/26 03:57:21;;;;;;;6.38;1.67;;;13.10;99.90;;;;;;5031766;28;20082;-75
2022/09/26 03:59:48;;;;;;;6.03;1.80;;;13.10;99.90;;;;;;5030293;28;20373;-75
2022/09/26 04:02:15;;;;;;;5.70;1.70;;;13.00;99.90;;;;;;5031611;28;20026;-75
2022/09/26 04:04:40;;;;;;;7.15;1.58;;;13.00;99.90;;;;;;5029586;28;20104;-75
2022/09/26 04:07:06;;;;;;;4.47;1.80;;;12.90;99.90;;;;;;5030612;28;20104;-75
2022/09/26 04:09:32;;;;;;;6.00;1.85;;;12.90;99.90;;;;;;5030889;28;20029;-75
2022/09/26 04:11:57;;;;;;;7.25;1.95;;;12.90;99.90;;;;;;5035618;28;20017;-76
2022/09/26 04:14:23;;;;;;;5.88;1.83;;;12.90;99.90;;;;;;5041787;28;20032;-75
2022/09/26 04:16:48;;;;;;;5.60;1.88;;;12.90;99.90;;;;;;5021591;28;20017;-75
2022/09/26 04:19:14;;;;;;;4.90;2.10;;;12.90;99.90;;;;;;5037394;28;20112;-76
2022/09/26 04:21:41;;;;;;;7.43;2.00;;;12.80;99.90;;;;;;5036880;28;20029;-75
2022/09/26 04:24:11;;;;;;;5.07;2.20;;;12.90;99.90;;;;;;5037146;28;20035;-75
2022/09/26 04:26:40;;;;;;;5.68;1.88;;;12.90;99.90;;;;;;5050538;28;20028;-76
2022/09/26 04:29:05;;;;;;;8.23;2.25;;;12.90;99.90;;;;;;5021586;28;20034;-76
2022/09/26 04:31:34;;;;;;;5.15;2.15;;;12.90;99.90;;;;;;5045418;28;20032;-76
2022/09/26 04:34:00;;;;;;;6.50;2.00;;;12.90;99.90;;;;;;5042049;28;20476;-76
2022/09/26 04:36:25;;;;;;;5.72;2.17;;;12.90;99.90;;;;;;5036910;28;20029;-76
2022/09/26 04:38:51;;;;;;;4.50;2.03;;;12.90;99.90;;;;;;5036542;28;20037;-76
2022/09/26 04:41:19;;;;;;;5.25;2.05;;;12.90;99.90;;;;;;5037362;28;20370;-76
2022/09/26 04:43:45;;;;;;;6.30;2.05;;;13.00;99.90;;;;;;5036678;28;20059;-76
2022/09/26 04:46:17;;;;;;;8.20;2.28;;;12.90;99.90;;;;;;5036182;28;20394;-76
2022/09/26 04:48:43;;;;;;;6.50;2.03;;;13.00;99.90;;;;;;5037017;28;20109;-76
2022/09/26 04:51:11;;;;;;;6.40;1.95;;;13.00;99.90;;;;;;5036879;28;20128;-76
2022/09/26 04:53:38;;;;;;;6.78;2.25;;;12.90;99.90;;;;;;5036754;28;20025;-76
2022/09/26 04:56:09;;;;;;;8.52;2.13;;;12.90;99.90;;;;;;5037653;28;20056;-76
2022/09/26 04:58:36;;;;;;;6.20;2.22;;;12.90;99.90;;;;;;5049272;28;20036;-76
2022/09/26 05:01:04;;;;;;;5.40;2.20;;;12.90;99.90;;;;;;5051013;28;20017;-76
2022/09/26 05:03:30;;;;;;;8.20;2.20;;;12.90;99.90;;;;;;5023394;28;20021;-76
2022/09/26 05:05:56;;;;;;;6.05;2.03;;;12.90;99.90;;;;;;5036566;28;20038;-76
2022/09/26 05:08:22;;;;;;;4.22;1.88;;;12.90;99.90;;;;;;5022482;28;20025;-76
2022/09/26 05:10:53;;;;;;;5.82;2.03;;;12.80;99.90;;;;;;5047787;28;20022;-75
2022/09/26 05:13:20;;;;;;;6.82;1.90;;;12.90;99.90;;;;;;5047667;28;20397;-76
2022/09/26 05:15:46;;;;;;;5.38;1.60;;;12.90;99.90;;;;;;5042674;28;20021;-77
2022/09/26 05:18:12;;;;;;;7.30;2.15;;;12.80;99.90;;;;;;5052189;28;20032;-77
2022/09/26 05:20:38;;;;;;;8.35;1.77;;;12.90;99.90;;;;;;5035902;28;20021;-77
2022/09/26 05:23:06;;;;;;;6.38;1.80;;;12.90;99.90;;;;;;5036062;28;20109;-77
2022/09/26 05:28:25;;;;;;;4.50;2.00;;;12.80;99.90;;;;;;5035442;28;20457;-77
2022/09/26 05:30:51;;;;;;;6.50;1.70;;;12.90;99.90;;;;;;5031700;28;20394;-77
2022/09/26 05:33:18;;;;;;;7.35;2.17;;;12.90;99.90;;;;;;5043891;28;20460;-77
2022/09/26 05:35:48;;;;;;;6.63;2.03;;;12.90;99.90;;;;;;5044797;28;20021;-77
2022/09/26 05:38:14;;;;;;;11.27;2.00;;;12.90;99.90;;;;;;5043231;28;20119;-77
2022/09/26 05:40:55;;;;;;;5.35;1.95;;;12.90;99.90;;;;;;5050713;28;20025;-78
2022/09/26 05:43:21;;;;;;;5.20;2.00;;;12.90;99.90;;;;;;5025809;28;20044;-78
2022/09/26 05:45:48;;;;;;;6.10;2.00;;;12.90;99.90;;;;;;5020438;28;20021;-78
2022/09/26 05:48:15;;;;;;;4.38;2.20;;;12.90;99.90;;;;;;5023074;28;20029;-78
2022/09/26 05:50:42;;;;;;;9.13;2.15;;;12.90;99.90;;;;;;5031661;28;20042;-78
2022/09/26 05:53:08;;;;;;;7.35;2.30;;;12.80;99.90;;;;;;5032431;28;20130;-78
2022/09/26 05:55:36;;;;;;;8.05;1.95;;;12.80;99.90;;;;;;5023790;28;20057;-78
2022/09/26 05:58:02;;;;;;;10.88;2.28;;;12.80;99.90;;;;;;5032389;28;20099;-78
2022/09/26 06:00:28;;;;;;;5.78;2.00;;;12.80;99.90;;;;;;5062533;28;20025;-78
2022/09/26 06:02:57;;;;;;;6.07;2.38;;;12.90;99.90;;;;;;5020626;28;20587;-78
2022/09/26 06:05:24;;;;;;;11.45;2.53;;;12.90;99.90;;;;;;5035463;28;20028;-78
2022/09/26 06:07:51;;;;;;;7.05;2.15;;;12.90;99.90;;;;;;5020034;28;20083;-78
2022/09/26 06:10:18;;;;;;;9.05;2.30;;;12.90;99.90;;;;;;5026640;28;20104;-77
2022/09/26 06:12:44;;;;;;;5.50;2.45;;;12.90;99.90;;;;;;5037572;28;20037;-77
2022/09/26 06:15:10;;;;;;;7.43;2.35;;;12.90;99.90;;;;;;5014249;28;20022;-77
2022/09/26 06:17:36;;;;;;;10.43;2.20;;;12.90;99.90;;;;;;5023785;28;20108;-77
2022/09/26 06:20:03;;;;;;;7.85;2.10;;;12.90;99.90;;;;;;5021575;28;20018;-77
2022/09/26 06:22:28;;;;;;;10.70;2.20;;;12.90;99.90;;;;;;5032312;28;20063;-78
2022/09/26 06:24:54;;;;;;;7.32;2.15;;;12.90;99.90;;;;;;5020257;28;20053;-78
2022/09/26 06:27:21;;;;;;;8.00;2.47;;;12.90;99.90;;;;;;5019501;28;20036;-79
2022/09/26 06:29:47;;;;;;;6.38;2.20;;;12.90;99.90;;;;;;5024955;28;20087;-78
2022/09/26 06:32:12;;;;;;;6.97;2.13;;;12.90;99.90;;;;;;5044202;28;20029;-79
2022/09/26 06:34:38;;;;;;;6.78;2.40;;;12.90;99.90;;;;;;5027346;28;20486;-79
2022/09/26 06:37:04;;;;;;;9.90;2.45;;;13.00;99.90;;;;;;5029393;28;20033;-77
2022/09/26 06:39:34;;;;;;;6.85;2.20;;;12.90;99.90;;;;;;5029252;28;20095;-77
2022/09/26 06:42:01;;;;;;;5.95;2.50;;;12.90;99.90;;;;;;5033580;28;20104;-77
2022/09/26 06:44:27;;;;;;;5.20;2.20;;;13.00;99.90;;;;;;5052001;28;20112;-76
2022/09/26 06:46:52;;;;;;;12.85;2.35;;;13.00;99.90;;;;;;5020736;28;20112;-76
2022/09/26 06:49:18;;;;;;;7.60;2.65;;;13.00;99.90;;;;;;5018859;28;20462;-77
2022/09/26 06:51:47;;;;;;;10.30;2.83;;;13.00;99.90;;;;;;5031816;28;20053;-77
2022/09/26 06:54:13;;;;;;;7.25;2.45;;;13.00;99.90;;;;;;5029190;28;20050;-77
2022/09/26 06:56:39;;;;;;;6.00;2.50;;;13.10;99.90;;;;;;5022353;28;20477;-77
2022/09/26 06:59:04;;;;;;;5.90;2.58;;;13.10;99.90;;;;;;5031823;28;20385;-77
2022/09/26 07:01:30;;;;;;;8.45;2.50;;;13.10;99.90;;;;;;5030874;28;20667;-77
2022/09/26 07:03:58;;;;;;;5.82;2.17;;;13.10;99.90;;;;;;5029520;28;20033;-77
2022/09/26 07:06:24;;;;;;;7.97;2.22;;;13.20;99.90;;;;;;5031770;28;20033;-77
2022/09/26 07:08:51;;;;;;;7.07;2.28;;;13.20;99.90;;;;;;5031520;28;20025;-77
2022/09/26 07:11:17;;;;;;;11.40;2.33;;;13.20;99.90;;;;;;5032624;28;20025;-77
2022/09/26 07:13:44;;;;;;;9.93;2.67;;;13.20;99.90;;;;;;5032253;28;20018;-77
2022/09/26 07:16:11;;;;;;;11.77;2.38;;;13.20;99.90;;;;;;5029187;28;20037;-77
2022/09/26 07:18:38;;;;;;;9.50;2.38;;;13.20;99.90;;;;;;5032519;28;20097;-77
2022/09/26 07:21:05;;;;;;;7.45;2.38;;;13.20;99.90;;;;;;5029076;28;20065;-77
2022/09/26 07:23:31;;;;;;;7.00;2.42;;;13.20;99.90;;;;;;5022055;28;20030;-77
2022/09/26 07:25:56;;;;;;;7.05;2.50;;;13.20;99.90;;;;;;5031437;28;20531;-77
2022/09/26 07:28:23;;;;;;;7.93;2.45;;;13.20;99.90;;;;;;5028920;28;20029;-77
2022/09/26 07:30:48;;;;;;;4.93;2.15;;;13.30;99.90;;;;;;5031971;28;20075;-77
2022/09/26 07:33:14;;;;;;;8.57;2.42;;;13.20;99.90;;;;;;5028536;28;20398;-77
2022/09/26 07:35:43;;;;;;;6.85;2.28;;;13.20;99.90;;;;;;5018592;28;20394;-77
2022/09/26 07:38:11;;;;;;;9.05;2.10;;;13.20;99.90;;;;;;5026925;28;20041;-77
2022/09/26 07:40:38;;;;;;;8.27;2.53;;;13.30;99.90;;;;;;5031359;28;20032;-77
2022/09/26 07:43:04;;;;;;;7.55;2.50;;;13.20;99.90;;;;;;5032296;28;20033;-76
2022/09/26 07:50:58;;;;;;;6.45;2.17;;;13.30;99.90;;;;;;5031203;28;20031;-77
2022/09/26 07:53:25;;;;;;;8.90;2.30;;;13.30;99.90;;;;;;5032044;28;20040;-77
2022/09/26 07:56:04;;;;;;;9.90;2.55;;;13.30;99.90;;;;;;5021636;28;20049;-77
2022/09/26 07:58:35;;;;;;;8.55;2.40;;;13.30;99.90;;;;;;5023588;28;20027;-77
2022/09/26 08:01:01;;;;;;;11.23;2.60;;;13.30;99.90;;;;;;5032577;28;20520;-77
2022/09/26 08:03:27;;;;;;;7.30;2.20;;;13.30;99.90;;;;;;5026602;28;20104;-77
2022/09/26 08:05:59;;;;;;;4.45;2.05;;;13.30;99.90;;;;;;5028282;28;20471;-77
2022/09/26 08:08:25;;;;;;;6.75;2.45;;;13.30;99.90;;;;;;5030078;28;20436;-77
2022/09/26 08:10:50;;;;;;;8.25;2.60;;;13.20;99.90;;;;;;5031578;28;20017;-77
2022/09/26 08:13:16;;;;;;;6.32;2.45;;;13.10;99.90;;;;;;5031033;28;20525;-77
2022/09/26 08:15:42;;;;;;;11.30;2.53;;;13.10;99.90;;;;;;5025395;28;20026;-77
2022/09/26 08:18:07;;;;;;;7.50;2.30;;;13.10;99.90;;;;;;5025041;28;20040;-77
2022/09/26 08:20:34;;;;;;;9.10;2.50;;;13.10;99.90;;;;;;5025374;28;20123;-78
2022/09/26 08:23:00;;;;;;;9.57;2.78;;;13.10;99.90;;;;;;5030016;28;20018;-77
2022/09/26 08:25:26;;;;;;;7.85;2.33;;;13.10;99.90;;;;;;5024880;28;20109;-78
2022/09/26 08:27:52;;;;;;;8.20;2.78;;;13.10;99.90;;;;;;5017429;28;20034;-78
2022/09/26 08:30:18;;;;;;;13.68;3.13;;;13.10;99.90;;;;;;5015147;28;20030;-78
2022/09/26 08:33:00;;;;;;;9.95;3.22;;;13.10;99.90;;;;;;5016665;28;20060;-78
2022/09/26 08:35:28;;;;;;;7.00;2.78;;;13.10;99.90;;;;;;5014452;28;20021;-78
2022/09/26 08:37:55;;;;;;;11.15;3.03;;;13.10;99.90;;;;;;5016927;28;20026;-78
2022/09/26 08:40:26;;;;;;;10.20;3.10;;;13.10;99.90;;;;;;5027020;28;20012;-78
2022/09/26 08:43:12;;;;;;;12.48;3.42;;;13.00;99.90;;;;;;5033372;28;20034;-78
2022/09/26 08:48:37;;;;;;;7.65;3.35;;;13.10;99.90;;;;;;5019853;28;20064;-78
2022/09/26 08:51:13;;;;;;;7.57;3.13;;;13.00;99.90;;;;;;5023904;28;20490;-77
2022/09/26 08:53:49;;;;;;;11.52;3.53;;;13.00;99.90;;;;;;5017340;28;20057;-78
2022/09/26 08:56:28;;;;;;;10.82;3.75;;;13.00;99.90;;;;;;5015237;28;20069;-77
2022/09/26 08:58:59;;;;;;;7.88;3.60;;;12.90;99.90;;;;;;5011525;28;20057;-78
2022/09/26 09:01:28;;;;;;;10.93;3.85;;;12.90;99.90;;;;;;5017352;28;20033;-78
2022/09/26 09:04:58;;;;;;;8.50;3.80;;;12.90;99.90;;;;;;5014077;28;20030;-77
2022/09/26 09:07:25;;;;;;;13.32;3.97;;;13.00;99.90;;;;;;4964325;28;20051;-77
2022/09/26 09:10:00;;;;;;;8.20;4.20;;;13.00;99.90;;;;;;4970590;28;20046;-77
2022/09/26 09:12:44;;;;;;;9.63;4.38;;;13.00;99.90;;;;;;4969365;28;20031;-77
2022/09/26 09:15:32;;;;;;;12.00;4.40;;;13.00;99.90;;;;;;4969926;28;20550;-78
2022/09/26 09:18:16;;;;;;;12.90;4.10;;;13.10;99.90;;;;;;4971572;28;20030;-77
2022/09/26 09:20:57;;;;;;;9.15;4.40;;;13.10;99.90;;;;;;4971630;28;20503;-78
2022/09/26 09:23:31;;;;;;;8.80;4.25;;;13.10;99.90;;;;;;4971170;28;20147;-78
2022/09/26 09:26:10;;;;;;;8.50;4.07;;;13.20;99.90;;;;;;4955074;28;20026;-77
2022/09/26 09:29:09;;;;;;;8.13;3.92;;;13.20;99.90;;;;;;4968465;28;20275;-77
2022/09/26 09:31:41;;;;;;;10.45;4.38;;;13.20;99.90;;;;;;4961070;28;20030;-77
2022/09/26 09:34:28;;;;;;;7.68;4.10;;;13.10;99.90;;;;;;4970720;28;20039;-77
2022/09/26 09:37:02;;;;;;;9.18;4.18;;;13.10;99.90;;;;;;4972116;28;20491;-77
2022/09/26 09:39:34;;;;;;;9.48;4.40;;;13.10;99.90;;;;;;4972010;28;20394;-77
2022/09/26 09:42:11;;;;;;;9.07;4.47;;;13.10;99.90;;;;;;4976546;28;20031;-77
2022/09/26 09:44:51;;;;;;;8.00;4.28;;;13.10;99.90;;;;;;5039373;28;20053;-76
2022/09/26 09:47:19;;;;;;;7.82;3.90;;;13.00;99.90;;;;;;5029027;28;20401;-76
2022/09/26 09:49:48;;;;;;;6.80;3.50;;;13.00;99.90;;;;;;5032834;28;20380;-76
2022/09/26 09:52:31;;;;;;;6.22;3.30;;;13.00;99.90;;;;;;5038621;28;20489;-76
2022/09/26 09:55:08;;;;;;;6.68;3.25;;;13.00;99.90;;;;;;5032790;28;20025;-77
2022/09/26 09:57:53;;;;;;;6.85;3.30;;;13.00;99.90;;;;;;5020257;28;20534;-76
2022/09/26 10:00:23;;;;;;;7.43;3.03;;;13.00;99.90;;;;;;5014652;28;20018;-76
2022/09/26 10:02:49;;;;;;;8.50;3.25;;;13.00;99.90;;;;;;5014151;28;20014;-76
2022/09/26 10:05:36;;;;;;;4.97;2.60;;;13.00;99.90;;;;;;5019594;28;20033;-75
2022/09/26 10:08:03;;;;;;;9.02;3.25;;;13.00;99.90;;;;;;5023794;28;20036;-75
2022/09/26 10:10:38;;;;;;;6.93;3.35;;;13.00;99.90;;;;;;5018457;28;20026;-75
2022/09/26 10:13:07;;;;;;;5.20;2.88;;;13.00;99.90;;;;;;5018264;28;20033;-75
2022/09/26 10:15:35;;;;;;;6.65;3.10;;;13.00;99.90;;;;;;5019542;28;20485;-76
2022/09/26 10:18:02;;;;;;;5.47;3.22;;;13.00;99.90;;;;;;5027354;28;20061;-75
2022/09/26 10:20:41;;;;;;;6.75;3.33;;;12.90;99.90;;;;;;5020693;28;20014;-76
2022/09/26 10:23:26;;;;;;;5.93;3.20;;;13.00;99.90;;;;;;5018446;28;20057;-75
2022/09/26 10:25:58;;;;;;;5.95;3.40;;;13.00;99.90;;;;;;5018099;28;20037;-75
2022/09/26 10:28:32;;;;;;;6.25;3.45;;;13.00;99.90;;;;;;5028791;28;20434;-75
2022/09/26 10:31:07;;;;;;;8.52;3.83;;;13.00;99.90;;;;;;5028341;28;20090;-75
2022/09/26 10:33:34;;;;;;;;;;;13.00;99.90;;;;;;5022101;28;20254;-74
2022/09/26 10:36:15;;;;;;;6.07;3.08;;;13.00;99.90;;;;;;5017682;28;20301;-75
2022/09/26 10:41:46;;;;;;;4.70;2.75;;;13.00;99.90;;;;;;5038052;28;20504;-75
2022/09/26 10:44:26;;;;;;;4.80;2.88;;;13.00;99.90;;;;;;5021554;28;20021;-76
2022/09/26 10:46:56;;;;;;;4.82;3.20;;;13.00;99.90;;;;;;5029854;28;20036;-75
2022/09/26 10:49:27;;;;;;;6.25;3.30;;;13.00;99.90;;;;;;5063241;28;20087;-76
2022/09/26 10:52:13;;;;;;;4.85;2.90;;;13.00;99.90;;;;;;5032201;28;20046;-75
2022/09/26 10:55:03;;;;;;;3.47;3.00;;;13.00;99.90;;;;;;5011897;28;20125;-76
2022/09/26 10:57:50;;;;;;;3.70;2.75;;;13.00;99.90;;;;;;5013393;28;20018;-75
2022/09/26 11:00:41;;;;;;;4.57;2.92;;;13.00;99.90;;;;;;5025617;28;20045;-76
2022/09/26 11:03:13;;;;;;;6.07;3.25;;;13.10;99.90;;;;;;5029672;28;20041;-75
2022/09/26 11:05:58;;;;;;;3.47;3.08;;;13.10;99.90;;;;;;5031875;28;20027;-74
2022/09/26 11:08:29;;;;;;;5.32;3.45;;;13.10;99.90;;;;;;5032312;28;20540;-74
2022/09/26 11:10:57;;;;;;;5.15;3.63;;;13.20;99.90;;;;;;5041381;28;20013;-76
2022/09/26 11:13:25;;;;;;;4.30;3.50;;;13.20;99.90;;;;;;5029583;28;20481;-75
2022/09/26 11:16:08;;;;;;;6.07;3.63;;;13.20;99.90;;;;;;5023715;28;20096;-74
2022/09/26 11:18:52;;;;;;;7.05;3.88;;;13.30;99.90;;;;;;5026953;28;20029;-75
2022/09/26 11:21:43;;;;;;;6.13;4.13;;;13.30;99.90;;;;;;5025184;28;20032;-77
2022/09/26 11:24:19;;;;;;;6.45;5.13;;;13.30;99.90;;;;;;5022421;28;20030;-75
2022/09/26 11:27:22;;;;;;;7.63;4.75;;;13.30;99.90;;;;;;5030888;28;20040;-76
2022/09/26 11:30:09;;;;;;;7.10;4.40;;;13.40;99.90;;;;;;5019059;28;20484;-76
2022/09/26 11:32:45;;;;;;;7.43;4.38;;;13.40;99.90;;;;;;5018214;28;20441;-76
2022/09/26 11:35:19;;;;;;;6.10;3.58;;;13.40;99.90;;;;;;5030849;28;20026;-76
2022/09/26 11:38:19;;;;;;;4.32;3.00;;;13.40;99.90;;;;;;5030762;28;20033;-75
2022/09/26 11:41:35;;;;;;;4.50;2.60;;;13.50;99.90;;;;;;5018892;28;20366;-76
2022/09/26 11:44:24;;;;;;;4.53;2.53;;;13.50;99.90;;;;;;5055314;28;20022;-76
2022/09/26 11:47:05;;;;;;;2.28;2.08;;;13.50;99.90;;;;;;5018828;28;20102;-77
2022/09/26 11:49:42;;;;;;;3.35;2.03;;;13.50;99.90;;;;;;5029581;28;20400;-76
2022/09/26 11:52:21;;;;;;;2.95;1.80;;;13.50;99.90;;;;;;5024281;28;20045;-76
2022/09/26 11:54:47;;;;;;;2.10;1.90;;;13.60;99.90;;;;;;5023608;28;20559;-77
2022/09/26 11:57:42;;;;;;;2.22;2.00;;;13.60;99.90;;;;;;5018339;28;20117;-76
2022/09/26 12:00:25;;;;;;;2.30;2.10;;;13.70;99.90;;;;;;5024940;28;20046;-76
2022/09/26 12:02:53;;;;;;;2.75;2.50;;;13.70;99.90;;;;;;5030815;28;20112;-77
2022/09/26 12:05:40;;;;;;;3.63;3.33;;;13.80;99.90;;;;;;5030875;28;20100;-76
2022/09/26 12:08:15;;;;;;;3.83;3.33;;;13.80;99.90;;;;;;5030376;28;20075;-75
2022/09/26 12:10:55;;;;;;;4.80;3.65;;;13.90;99.90;;;;;;5030436;28;20029;-76
2022/09/26 12:13:35;;;;;;;6.65;3.90;;;13.90;99.90;;;;;;5024114;28;20041;-75
2022/09/26 12:16:44;;;;;;;5.43;4.10;;;13.90;99.90;;;;;;5030966;28;20025;-75
2022/09/26 12:19:31;;;;;;;5.00;3.70;;;13.80;99.90;;;;;;4988593;28;20038;-76
2022/09/26 12:22:27;;;;;;;8.50;4.20;;;13.90;99.90;;;;;;4983926;28;20026;-75
2022/09/26 12:25:22;;;;;;;7.28;4.07;;;13.90;99.90;;;;;;4987799;28;20124;-75
2022/09/26 12:28:06;;;;;;;11.85;4.63;;;13.90;99.90;;;;;;4975254;28;20051;-76
2022/09/26 12:30:48;;;;;;;8.50;3.92;;;13.90;99.90;;;;;;4987426;28;20042;-74
2022/09/26 12:33:26;;;;;;;7.55;4.30;;;14.00;99.90;;;;;;4991873;28;20029;-74
2022/09/26 12:36:39;;;;;;;8.85;3.92;;;14.00;99.90;;;;;;5000361;28;20014;-74
2022/09/26 12:39:25;;;;;;;12.93;4.03;;;14.10;99.90;;;;;;4983480;28;20549;-76
2022/09/26 12:42:28;;;;;;;7.25;3.80;;;14.10;99.90;;;;;;4987659;28;20030;-76
2022/09/26 12:45:21;;;;;;;8.23;3.60;;;14.10;99.90;;;;;;4991329;28;20094;-77
2022/09/26 12:48:09;;;;;;;5.32;3.05;;;14.20;99.90;;;;;;5007339;28;20068;-75
2022/09/26 12:51:29;;;;;;;9.68;3.30;;;14.20;99.90;;;;;;5024579;28;20062;-76
2022/09/26 12:54:00;;;;;;;7.65;2.72;;;14.30;99.90;;;;;;5022828;28;20404;-76
2022/09/26 12:57:06;;;;;;;10.77;3.38;;;14.30;99.90;;;;;;5030261;28;20033;-76
2022/09/26 12:59:50;;;;;;;9.10;3.10;;;14.40;99.90;;;;;;4952274;28;20032;-75
2022/09/26 13:02:39;;;;;;;14.43;3.50;;;14.50;99.90;;;;;;4946780;29;20120;-75
2022/09/26 13:05:24;;;;;;;10.57;3.05;;;14.60;99.90;;;;;;4952025;28;20487;-76
2022/09/26 13:08:16;;;;;;;11.98;3.30;;;14.90;99.90;;;;;;4953144;28;20614;-76
2022/09/26 13:10:47;;;;;;;12.50;2.88;;;15.00;99.90;;;;;;4943428;28;20114;-76
2022/09/26 13:13:51;;;;;;;14.50;3.20;;;15.20;99.90;;;;;;4954382;28;20038;-76
2022/09/26 13:16:34;;;;;;;13.15;2.83;;;15.40;99.90;;;;;;4952131;28;20089;-75
2022/09/26 13:19:10;;;;;;;13.32;2.45;;;15.40;99.90;;;;;;4968338;28;20109;-77
2022/09/26 13:21:53;;;;;;;14.93;2.90;;;15.50;99.90;;;;;;4970211;28;20591;-75
2022/09/26 13:24:30;;;;;;;11.35;2.53;;;15.50;99.90;;;;;;4967021;28;20026;-76
2022/09/26 13:27:14;;;;;;;13.85;2.17;;;15.50;99.90;;;;;;4959831;28;20035;-75
2022/09/26 13:29:46;;;;;;;14.63;2.97;;;15.60;99.90;;;;;;4944942;28;20439;-78
2022/09/26 13:32:35;;;;;;;12.23;2.33;;;15.60;99.90;;;;;;4967845;28;20030;-76
2022/09/26 13:35:13;;;;;;;11.20;2.03;;;15.60;99.90;;;;;;4974297;28;20101;-77